createdAt,value
2018-03-29T00:01:41.978Z,7.13
2018-03-29T00:04:09.291Z,7.80
2018-03-29T00:06:36.541Z,8.43
2018-03-29T00:09:03.823Z,7.90
2018-03-29T00:11:31.149Z,8.07
2018-03-29T00:13:58.406Z,8.13
2018-03-29T00:16:25.766Z,9.10
2018-03-29T00:18:53.258Z,7.87
2018-03-29T00:21:20.512Z,7.93
2018-03-29T00:23:47.780Z,7.77
2018-03-29T00:26:15.044Z,7.93
2018-03-29T00:28:42.327Z,7.63
2018-03-29T00:31:09.581Z,7.00
2018-03-29T00:33:36.836Z,7.80
2018-03-29T00:36:04.113Z,7.20
2018-03-29T00:38:31.381Z,6.80
2018-03-29T00:40:58.696Z,7.73
2018-03-29T00:43:26.061Z,7.00
2018-03-29T00:45:53.312Z,6.73
2018-03-29T00:48:20.561Z,6.47
2018-03-29T00:50:47.933Z,6.70
2018-03-29T00:53:21.219Z,7.60
2018-03-29T00:55:48.577Z,6.43
2018-03-29T00:58:15.832Z,6.90
2018-03-29T01:00:43.100Z,7.03
2018-03-29T01:03:10.383Z,6.20
2018-03-29T01:05:37.634Z,6.57
2018-03-29T01:08:04.900Z,5.80
2018-03-29T01:10:32.199Z,5.03
2018-03-29T01:12:59.474Z,6.40
2018-03-29T01:15:26.733Z,5.53
2018-03-29T01:17:54.024Z,5.57
2018-03-29T01:20:21.261Z,5.97
2018-03-29T01:22:48.508Z,5.53
2018-03-29T01:25:15.759Z,6.33
2018-03-29T01:27:43.028Z,6.57
2018-03-29T01:30:10.301Z,6.03
2018-03-29T01:32:38.435Z,6.57
2018-03-29T01:35:05.678Z,6.33
2018-03-29T01:37:32.955Z,6.50
2018-03-29T01:40:00.263Z,6.30
2018-03-29T01:42:27.528Z,6.70
2018-03-29T01:44:54.875Z,7.43
2018-03-29T01:47:22.145Z,6.37
2018-03-29T01:49:49.400Z,6.77
2018-03-29T01:52:16.684Z,7.30
2018-03-29T01:54:43.936Z,7.20
2018-03-29T01:57:11.236Z,7.80
2018-03-29T01:59:38.485Z,7.17
2018-03-29T02:02:05.852Z,8.10
2018-03-29T02:04:33.112Z,8.33
2018-03-29T02:07:00.457Z,7.33
2018-03-29T02:09:27.813Z,8.20
2018-03-29T02:11:55.163Z,7.23
2018-03-29T02:14:22.434Z,8.43
2018-03-29T02:16:49.697Z,7.70
2018-03-29T02:19:16.971Z,7.30
2018-03-29T02:21:44.228Z,7.30
2018-03-29T02:24:11.509Z,7.53
2018-03-29T02:26:38.791Z,7.37
2018-03-29T02:29:06.047Z,6.80
2018-03-29T02:31:33.400Z,5.90
2018-03-29T02:34:00.679Z,6.80
2018-03-29T02:36:27.928Z,6.07
2018-03-29T02:38:55.203Z,6.53
2018-03-29T02:41:22.473Z,6.57
2018-03-29T02:43:49.735Z,5.60
2018-03-29T02:46:17.022Z,6.47
2018-03-29T02:48:44.284Z,6.70
2018-03-29T02:51:11.557Z,6.37
2018-03-29T02:53:38.809Z,5.70
2018-03-29T02:56:06.067Z,6.70
2018-03-29T02:58:33.393Z,5.73
2018-03-29T03:01:00.637Z,5.90
2018-03-29T03:03:27.914Z,5.20
2018-03-29T03:05:55.252Z,5.57
2018-03-29T03:08:22.504Z,4.93
2018-03-29T03:10:49.862Z,5.70
2018-03-29T03:13:17.117Z,5.10
2018-03-29T03:15:44.372Z,5.23
2018-03-29T03:18:11.636Z,5.23
2018-03-29T03:20:38.908Z,5.20
2018-03-29T03:23:06.228Z,5.50
2018-03-29T03:25:33.481Z,5.83
2018-03-29T03:28:00.758Z,5.80
2018-03-29T03:30:28.002Z,7.07
2018-03-29T03:32:55.272Z,4.60
2018-03-29T03:35:22.596Z,6.83
2018-03-29T03:37:49.858Z,6.47
2018-03-29T03:40:17.129Z,6.00
2018-03-29T03:42:44.462Z,5.50
2018-03-29T03:45:11.734Z,7.30
2018-03-29T03:47:39.065Z,6.60
2018-03-29T03:50:06.332Z,7.40
2018-03-29T03:52:33.676Z,6.60
2018-03-29T03:55:00.968Z,8.07
2018-03-29T03:57:28.216Z,7.17
2018-03-29T03:59:55.500Z,8.33
2018-03-29T04:02:22.791Z,8.03
2018-03-29T04:04:50.074Z,7.80
2018-03-29T04:07:17.402Z,9.23
2018-03-29T04:09:44.758Z,9.43
2018-03-29T04:12:12.048Z,9.27
2018-03-29T04:14:39.359Z,9.40
2018-03-29T04:17:06.624Z,9.30
2018-03-29T04:19:33.901Z,10.30
2018-03-29T04:22:01.201Z,10.63
2018-03-29T04:24:28.481Z,9.30
2018-03-29T04:26:55.743Z,11.13
2018-03-29T04:29:23.029Z,10.93
2018-03-29T04:31:50.323Z,10.47
2018-03-29T04:34:17.605Z,11.33
2018-03-29T04:36:44.872Z,11.60
2018-03-29T04:39:12.168Z,11.93
2018-03-29T04:41:39.462Z,10.80
2018-03-29T04:44:06.729Z,13.07
2018-03-29T04:46:34.017Z,12.77
2018-03-29T04:49:01.335Z,12.40
2018-03-29T04:51:28.588Z,12.10
2018-03-29T04:53:55.897Z,12.00
2018-03-29T04:56:23.184Z,12.70
2018-03-29T04:58:50.441Z,12.33
2018-03-29T05:01:17.840Z,12.23
2018-03-29T05:03:45.057Z,11.77
2018-03-29T05:06:12.347Z,12.30
2018-03-29T05:08:39.609Z,10.90
2018-03-29T05:11:06.881Z,11.80
2018-03-29T05:13:34.170Z,13.37
2018-03-29T05:16:01.464Z,11.90
2018-03-29T05:18:28.741Z,11.30
2018-03-29T05:20:56.038Z,11.07
2018-03-29T05:23:23.292Z,12.17
2018-03-29T05:25:50.578Z,12.40
2018-03-29T05:28:17.888Z,10.87
2018-03-29T05:30:45.235Z,12.50
2018-03-29T05:33:12.531Z,11.53
2018-03-29T05:35:39.798Z,11.50
2018-03-29T05:38:07.080Z,13.53
2018-03-29T05:40:34.460Z,12.17
2018-03-29T05:43:01.756Z,12.80
2018-03-29T05:45:29.012Z,13.90
2018-03-29T05:47:56.314Z,12.00
2018-03-29T05:50:23.568Z,13.23
2018-03-29T05:52:50.863Z,14.13
2018-03-29T05:55:18.129Z,15.27
2018-03-29T05:57:45.412Z,14.30
2018-03-29T06:00:12.680Z,16.43
2018-03-29T06:02:39.978Z,18.97
2018-03-29T06:05:07.240Z,17.33
2018-03-29T06:07:34.505Z,17.57
2018-03-29T06:10:01.815Z,16.77
2018-03-29T06:12:29.107Z,15.37
2018-03-29T06:14:56.365Z,16.07
2018-03-29T06:17:26.428Z,17.80
2018-03-29T06:19:53.710Z,17.70
2018-03-29T06:22:20.976Z,17.80
2018-03-29T06:24:48.256Z,15.10
2018-03-29T06:27:15.546Z,18.13
2018-03-29T06:29:42.918Z,17.23
2018-03-29T06:32:10.176Z,17.00
2018-03-29T06:34:37.446Z,16.63
2018-03-29T06:37:05.280Z,18.57
2018-03-29T06:39:33.481Z,17.77
2018-03-29T06:42:00.746Z,18.60
2018-03-29T06:44:28.037Z,18.87
2018-03-29T06:46:55.323Z,16.63
2018-03-29T06:49:22.612Z,17.97
2018-03-29T06:51:49.898Z,15.80
2018-03-29T06:54:17.184Z,17.50
2018-03-29T06:56:44.473Z,17.17
2018-03-29T06:59:11.744Z,19.10
2018-03-29T07:01:39.041Z,16.83
2018-03-29T07:04:06.305Z,17.13
2018-03-29T07:06:33.592Z,18.57
2018-03-29T07:09:00.885Z,17.00
2018-03-29T07:11:28.176Z,19.17
2018-03-29T07:13:55.523Z,18.47
2018-03-29T07:16:22.796Z,18.07
2018-03-29T07:18:50.162Z,20.20
2018-03-29T07:21:17.793Z,18.07
2018-03-29T07:23:45.060Z,18.67
2018-03-29T07:26:12.348Z,16.80
2018-03-29T07:28:39.645Z,16.97
2018-03-29T07:31:06.952Z,19.13
2018-03-29T07:33:34.214Z,17.93
2018-03-29T07:36:01.473Z,18.50
2018-03-29T07:38:28.770Z,17.57
2018-03-29T07:40:56.129Z,18.00
2018-03-29T07:43:23.414Z,18.70
2018-03-29T07:45:50.704Z,17.90
2018-03-29T07:48:17.959Z,18.43
2018-03-29T07:50:45.248Z,15.30
2018-03-29T07:53:12.633Z,15.83
2018-03-29T07:55:39.950Z,17.13
2018-03-29T07:58:07.278Z,16.77
2018-03-29T08:00:34.572Z,16.07
2018-03-29T08:03:01.838Z,15.70
2018-03-29T08:05:29.128Z,14.07
2018-03-29T08:07:56.388Z,15.43
2018-03-29T08:10:23.738Z,13.87
2018-03-29T08:12:50.948Z,12.93
2018-03-29T08:15:18.285Z,13.37
2018-03-29T08:17:45.599Z,12.47
2018-03-29T08:20:12.868Z,13.13
2018-03-29T08:22:40.152Z,10.80
2018-03-29T08:25:07.445Z,11.00
2018-03-29T08:27:34.701Z,9.30
2018-03-29T08:30:01.986Z,8.17
2018-03-29T08:32:29.264Z,10.93
2018-03-29T08:34:56.629Z,9.47
2018-03-29T08:37:23.901Z,9.30
2018-03-29T08:39:51.157Z,8.60
2018-03-29T08:42:18.476Z,9.47
2018-03-29T08:44:45.736Z,8.43
2018-03-29T08:47:13.019Z,8.00
2018-03-29T08:49:40.340Z,8.90
2018-03-29T08:52:07.628Z,7.93
2018-03-29T08:54:34.957Z,8.50
2018-03-29T08:57:02.236Z,10.13
2018-03-29T08:59:29.562Z,7.20
2018-03-29T09:01:56.842Z,8.00
2018-03-29T09:04:24.093Z,8.00
2018-03-29T09:06:51.380Z,8.40
2018-03-29T09:09:18.637Z,6.40
2018-03-29T09:11:45.919Z,6.50
2018-03-29T09:14:13.176Z,6.47
2018-03-29T09:16:40.445Z,6.27
2018-03-29T09:19:07.700Z,6.70
2018-03-29T09:21:34.970Z,6.80
2018-03-29T09:24:02.221Z,7.00
2018-03-29T09:26:29.487Z,6.80
2018-03-29T09:28:56.743Z,7.30
2018-03-29T09:31:24.009Z,6.60
2018-03-29T09:33:51.311Z,5.90
2018-03-29T09:36:18.591Z,8.13
2018-03-29T09:38:45.921Z,7.20
2018-03-29T09:41:13.175Z,7.50
2018-03-29T09:43:40.445Z,7.13
2018-03-29T09:46:07.709Z,8.03
2018-03-29T09:48:34.980Z,7.70
2018-03-29T09:51:02.236Z,8.07
2018-03-29T09:53:29.543Z,7.27
2018-03-29T09:55:56.788Z,7.60
2018-03-29T09:58:24.066Z,7.13
2018-03-29T10:00:51.316Z,6.10
2018-03-29T10:03:22.616Z,6.60
2018-03-29T10:05:49.874Z,5.60
2018-03-29T10:08:17.155Z,5.80
2018-03-29T10:10:44.405Z,6.43
2018-03-29T10:13:11.675Z,7.10
2018-03-29T10:15:38.928Z,5.90
2018-03-29T10:18:06.268Z,4.43
2018-03-29T10:20:33.519Z,4.30
2018-03-29T10:23:00.884Z,4.67
2018-03-29T10:25:28.241Z,5.27
2018-03-29T10:27:55.593Z,5.17
2018-03-29T10:30:22.867Z,6.20
2018-03-29T10:32:50.140Z,5.13
2018-03-29T10:35:17.393Z,5.40
2018-03-29T10:37:44.707Z,5.00
2018-03-29T10:40:11.957Z,5.40
2018-03-29T10:42:39.220Z,3.70
2018-03-29T10:45:06.473Z,4.47
2018-03-29T10:47:33.745Z,4.93
2018-03-29T10:50:00.997Z,5.00
2018-03-29T10:52:28.266Z,3.63
2018-03-29T10:54:55.529Z,5.30
2018-03-29T10:57:22.797Z,3.93
2018-03-29T10:59:50.089Z,4.70
2018-03-29T11:02:17.373Z,4.90
2018-03-29T11:04:44.710Z,3.93
2018-03-29T11:07:11.953Z,4.00
2018-03-29T11:09:39.321Z,2.80
2018-03-29T11:12:06.660Z,2.40
2018-03-29T11:14:33.913Z,2.13
2018-03-29T11:17:01.274Z,1.77
2018-03-29T11:19:28.527Z,1.90
2018-03-29T11:21:55.804Z,2.20
2018-03-29T11:24:23.049Z,1.97
2018-03-29T11:26:50.328Z,2.63
2018-03-29T11:29:17.584Z,2.47
2018-03-29T11:31:44.898Z,2.03
2018-03-29T11:34:12.177Z,1.90
2018-03-29T11:36:39.424Z,1.83
2018-03-29T11:39:06.761Z,2.20
2018-03-29T11:41:34.033Z,1.83
2018-03-29T11:44:01.305Z,2.00
2018-03-29T11:46:28.558Z,2.20
2018-03-29T11:48:55.844Z,2.50
2018-03-29T11:51:23.096Z,2.80
2018-03-29T11:53:50.373Z,2.70
2018-03-29T11:56:17.631Z,2.50
2018-03-29T11:58:44.900Z,2.60
2018-03-29T12:01:12.156Z,2.57
2018-03-29T12:03:39.424Z,3.10
2018-03-29T12:06:06.676Z,3.00
2018-03-29T12:08:33.940Z,2.93
2018-03-29T12:11:01.201Z,2.60
2018-03-29T12:13:28.479Z,2.93
2018-03-29T12:15:55.768Z,3.07
2018-03-29T12:18:23.042Z,2.77
2018-03-29T12:20:50.468Z,3.10
2018-03-29T12:23:17.736Z,2.83
2018-03-29T12:25:44.997Z,2.10
2018-03-29T12:28:12.332Z,2.47
2018-03-29T12:30:39.592Z,2.80
2018-03-29T12:33:06.857Z,2.90
2018-03-29T12:35:34.117Z,2.90
2018-03-29T12:38:01.382Z,3.13
2018-03-29T12:40:28.640Z,2.70
2018-03-29T12:42:55.904Z,3.00
2018-03-29T12:45:23.158Z,2.77
2018-03-29T12:47:50.440Z,2.90
2018-03-29T12:50:17.705Z,2.70
2018-03-29T12:52:44.967Z,3.00
2018-03-29T12:55:18.002Z,3.30
2018-03-29T12:57:51.089Z,3.40
2018-03-29T13:00:18.345Z,3.23
2018-03-29T13:02:45.633Z,2.63
2018-03-29T13:05:12.891Z,3.03
2018-03-29T13:07:40.176Z,2.60
2018-03-29T13:10:07.433Z,2.93
2018-03-29T13:12:34.709Z,2.73
2018-03-29T13:15:01.958Z,2.70
2018-03-29T13:17:29.253Z,2.90
2018-03-29T13:19:56.504Z,3.57
2018-03-29T13:22:23.751Z,3.40
2018-03-29T13:24:51.044Z,3.53
2018-03-29T13:27:18.309Z,3.10
2018-03-29T13:29:45.581Z,3.60
2018-03-29T13:32:12.826Z,3.07
2018-03-29T13:34:40.109Z,3.10
2018-03-29T13:37:07.357Z,3.10
2018-03-29T13:39:34.628Z,2.60
2018-03-29T13:42:01.884Z,2.67
2018-03-29T13:44:29.166Z,3.00
2018-03-29T13:46:56.405Z,3.17
2018-03-29T13:49:23.690Z,2.90
2018-03-29T13:51:51.037Z,2.70
2018-03-29T13:54:18.389Z,2.93
2018-03-29T13:56:45.641Z,3.27
2018-03-29T13:59:12.925Z,2.70
2018-03-29T14:01:40.227Z,2.83
2018-03-29T14:04:07.449Z,2.00
2018-03-29T14:06:34.769Z,2.17
2018-03-29T14:09:02.043Z,3.73
2018-03-29T14:11:29.293Z,3.00
2018-03-29T14:13:56.576Z,2.80
2018-03-29T14:16:23.828Z,2.80
2018-03-29T14:18:51.100Z,4.03
2018-03-29T14:21:18.389Z,2.50
2018-03-29T14:23:45.658Z,2.57
2018-03-29T14:26:12.993Z,2.60
2018-03-29T14:28:40.346Z,2.57
2018-03-29T14:31:07.608Z,2.00
2018-03-29T14:33:34.876Z,1.83
2018-03-29T14:36:02.130Z,2.07
2018-03-29T14:38:29.404Z,2.50
2018-03-29T14:40:56.652Z,1.87
2018-03-29T14:43:23.924Z,2.30
2018-03-29T14:45:51.172Z,2.23
2018-03-29T14:48:18.448Z,1.70
2018-03-29T14:50:45.701Z,1.53
2018-03-29T14:53:12.973Z,2.10
2018-03-29T14:55:40.261Z,1.80
2018-03-29T14:58:07.545Z,2.10
2018-03-29T15:00:34.848Z,2.17
2018-03-29T15:03:02.122Z,1.87
2018-03-29T15:05:29.372Z,1.90
2018-03-29T15:07:56.641Z,1.87
2018-03-29T15:10:23.893Z,1.73
2018-03-29T15:12:51.168Z,1.40
2018-03-29T15:15:18.472Z,1.80
2018-03-29T15:17:45.724Z,1.80
2018-03-29T15:20:13.005Z,2.07
2018-03-29T15:22:40.257Z,1.83
2018-03-29T15:25:07.525Z,2.20
2018-03-29T15:27:34.776Z,1.70
2018-03-29T15:30:02.058Z,2.10
2018-03-29T15:32:29.313Z,2.30
2018-03-29T15:34:56.585Z,2.40
2018-03-29T15:37:23.975Z,2.20
2018-03-29T15:39:51.209Z,2.53
2018-03-29T15:42:18.461Z,2.77
2018-03-29T15:44:45.734Z,2.80
2018-03-29T15:47:13.077Z,2.57
2018-03-29T15:49:40.352Z,2.40
2018-03-29T15:52:07.600Z,2.70
2018-03-29T15:54:34.949Z,2.50
2018-03-29T15:57:02.291Z,2.80
2018-03-29T15:59:29.581Z,2.43
2018-03-29T16:01:56.900Z,2.10
2018-03-29T16:04:24.259Z,2.30
2018-03-29T16:06:51.515Z,2.37
2018-03-29T16:09:18.780Z,2.67
2018-03-29T16:11:46.036Z,2.80
2018-03-29T16:14:13.304Z,2.53
2018-03-29T16:16:40.558Z,2.20
2018-03-29T16:19:07.825Z,3.00
2018-03-29T16:21:35.128Z,2.23
2018-03-29T16:24:02.489Z,2.50
2018-03-29T16:26:29.746Z,2.43
2018-03-29T16:28:57.047Z,2.13
2018-03-29T16:31:24.272Z,2.20
2018-03-29T16:33:51.540Z,2.10
2018-03-29T16:36:19.672Z,1.80
2018-03-29T16:38:46.950Z,1.80
2018-03-29T16:41:14.206Z,2.20
2018-03-29T16:43:41.477Z,1.80
2018-03-29T16:46:08.737Z,1.50
2018-03-29T16:48:36.000Z,2.10
2018-03-29T16:51:03.308Z,1.37
2018-03-29T16:53:30.575Z,1.83
2018-03-29T16:55:57.830Z,1.63
2018-03-29T16:58:25.164Z,1.60
2018-03-29T17:00:52.517Z,1.77
2018-03-29T17:03:19.788Z,1.50
2018-03-29T17:05:47.043Z,1.77
2018-03-29T17:08:15.232Z,1.30
2018-03-29T17:10:42.489Z,2.00
2018-03-29T17:13:09.748Z,1.80
2018-03-29T17:15:37.016Z,1.87
2018-03-29T17:18:04.273Z,1.33
2018-03-29T17:20:31.540Z,1.70
2018-03-29T17:22:58.793Z,1.73
2018-03-29T17:25:26.064Z,1.80
2018-03-29T17:27:53.312Z,1.77
2018-03-29T17:30:20.576Z,1.90
2018-03-29T17:32:47.837Z,2.23
2018-03-29T17:35:15.195Z,1.83
2018-03-29T17:37:42.441Z,2.23
2018-03-29T17:40:10.608Z,2.07
2018-03-29T17:42:37.872Z,2.03
2018-03-29T17:45:05.140Z,2.17
2018-03-29T17:47:32.402Z,1.80
2018-03-29T17:49:59.741Z,1.90
2018-03-29T17:52:26.992Z,1.83
2018-03-29T17:54:54.264Z,1.60
2018-03-29T17:57:21.600Z,2.17
2018-03-29T17:59:48.873Z,2.00
2018-03-29T18:02:16.125Z,1.43
2018-03-29T18:04:43.459Z,2.47
2018-03-29T18:07:10.776Z,1.80
2018-03-29T18:09:38.000Z,1.70
2018-03-29T18:12:05.251Z,1.93
2018-03-29T18:14:32.512Z,2.10
2018-03-29T18:16:59.845Z,1.93
2018-03-29T18:19:27.123Z,1.90
2018-03-29T18:21:54.367Z,1.97
2018-03-29T18:24:21.692Z,2.10
2018-03-29T18:26:48.941Z,2.13
2018-03-29T18:29:16.208Z,2.30
2018-03-29T18:31:43.464Z,2.23
2018-03-29T18:34:10.805Z,2.43
2018-03-29T18:36:38.057Z,2.30
2018-03-29T18:39:05.329Z,2.30
2018-03-29T18:41:32.576Z,2.30
2018-03-29T18:43:59.852Z,2.90
2018-03-29T18:46:27.262Z,2.80
2018-03-29T18:48:54.534Z,2.70
2018-03-29T18:51:21.788Z,2.37
2018-03-29T18:53:49.087Z,3.70
2018-03-29T18:56:16.329Z,2.70
2018-03-29T18:58:43.621Z,2.73
2018-03-29T19:01:10.872Z,3.10
2018-03-29T19:03:38.158Z,3.50
2018-03-29T19:06:05.512Z,3.20
2018-03-29T19:08:32.769Z,3.37
2018-03-29T19:11:00.040Z,3.63
2018-03-29T19:13:27.385Z,3.60
2018-03-29T19:15:54.644Z,3.17
2018-03-29T19:18:21.902Z,3.70
2018-03-29T19:20:49.199Z,4.57
2018-03-29T19:23:16.566Z,4.10
2018-03-29T19:25:43.839Z,4.10
2018-03-29T19:28:11.089Z,4.60
2018-03-29T19:30:38.359Z,3.93
2018-03-29T19:33:05.611Z,3.50
2018-03-29T19:35:32.886Z,3.17
2018-03-29T19:38:00.134Z,3.67
2018-03-29T19:40:27.448Z,3.70
2018-03-29T19:42:54.709Z,4.10
2018-03-29T19:45:21.991Z,3.50
2018-03-29T19:47:49.237Z,4.07
2018-03-29T19:50:16.517Z,3.70
2018-03-29T19:52:43.859Z,4.00
2018-03-29T19:55:11.111Z,3.30
2018-03-29T19:57:38.356Z,3.63
2018-03-29T20:00:05.704Z,3.53
2018-03-29T20:02:32.961Z,5.60
2018-03-29T20:05:00.218Z,5.20
2018-03-29T20:07:27.493Z,5.03
2018-03-29T20:09:54.742Z,4.73
2018-03-29T20:12:22.026Z,5.40
2018-03-29T20:14:49.280Z,5.43
2018-03-29T20:17:16.549Z,4.80
2018-03-29T20:19:43.800Z,5.03
2018-03-29T20:22:11.077Z,4.83
2018-03-29T20:24:38.325Z,4.90
2018-03-29T20:27:05.689Z,5.30
2018-03-29T20:29:32.955Z,5.83
2018-03-29T20:32:00.225Z,5.70
2018-03-29T20:34:27.482Z,5.40
2018-03-29T20:36:54.750Z,4.83
2018-03-29T20:39:22.052Z,4.83
2018-03-29T20:41:49.332Z,5.40
2018-03-29T20:44:16.582Z,6.00
2018-03-29T20:46:43.856Z,5.83
2018-03-29T20:49:11.108Z,5.60
2018-03-29T20:51:38.384Z,5.47
2018-03-29T20:54:05.636Z,5.87
2018-03-29T20:56:32.900Z,5.60
2018-03-29T20:59:00.185Z,5.30
2018-03-29T21:01:27.432Z,6.10
2018-03-29T21:03:54.705Z,5.23
2018-03-29T21:06:22.045Z,5.80
2018-03-29T21:08:49.322Z,6.13
2018-03-29T21:11:16.568Z,6.13
2018-03-29T21:13:43.841Z,5.23
2018-03-29T21:16:11.164Z,6.53
2018-03-29T21:18:38.435Z,5.10
2018-03-29T21:21:05.697Z,5.10
2018-03-29T21:23:33.043Z,7.40
2018-03-29T21:26:00.376Z,6.90
2018-03-29T21:28:27.665Z,5.30
2018-03-29T21:30:54.940Z,5.97
2018-03-29T21:33:22.218Z,7.07
2018-03-29T21:35:49.481Z,5.00
2018-03-29T21:38:16.764Z,5.10
2018-03-29T21:40:44.019Z,7.43
2018-03-29T21:43:11.361Z,6.40
2018-03-29T21:45:38.632Z,5.20
2018-03-29T21:48:05.888Z,5.27
2018-03-29T21:50:33.169Z,5.20
2018-03-29T21:53:00.420Z,5.77
2018-03-29T21:55:27.736Z,5.77
2018-03-29T21:57:55.087Z,6.10
2018-03-29T22:00:22.456Z,6.67
2018-03-29T22:02:49.704Z,6.60
2018-03-29T22:05:17.109Z,6.17
2018-03-29T22:07:44.364Z,6.80
2018-03-29T22:10:11.632Z,5.83
2018-03-29T22:12:38.893Z,6.10
2018-03-29T22:15:06.163Z,5.97
2018-03-29T22:17:33.453Z,5.63
2018-03-29T22:20:00.774Z,5.90
2018-03-29T22:22:28.020Z,5.90
2018-03-29T22:24:55.297Z,7.27
2018-03-29T22:27:22.545Z,7.10
2018-03-29T22:29:49.891Z,6.47
2018-03-29T22:32:17.255Z,7.00
2018-03-29T22:34:44.516Z,6.67
2018-03-29T22:37:11.775Z,5.90
2018-03-29T22:39:39.020Z,6.60
2018-03-29T22:42:06.298Z,7.23
2018-03-29T22:44:33.544Z,7.03
2018-03-29T22:47:00.827Z,5.40
2018-03-29T22:49:28.074Z,6.77
2018-03-29T22:51:55.349Z,6.30
2018-03-29T22:54:22.602Z,6.70
2018-03-29T22:56:49.874Z,6.30
2018-03-29T22:59:17.127Z,6.93
2018-03-29T23:01:44.403Z,7.80
2018-03-29T23:04:11.652Z,7.43
2018-03-29T23:06:38.928Z,7.73
2018-03-29T23:09:06.185Z,5.90
2018-03-29T23:11:33.456Z,5.70
2018-03-29T23:14:00.709Z,6.10
2018-03-29T23:16:28.009Z,6.87
2018-03-29T23:18:55.270Z,5.70
2018-03-29T23:21:22.547Z,6.63
2018-03-29T23:23:49.881Z,5.10
2018-03-29T23:26:17.162Z,5.00
2018-03-29T23:28:44.451Z,6.07
2018-03-29T23:31:11.697Z,5.57
2018-03-29T23:33:38.964Z,6.30
2018-03-29T23:36:06.240Z,4.90
2018-03-29T23:38:33.525Z,5.40
2018-03-29T23:41:00.772Z,6.20
2018-03-29T23:43:28.065Z,5.90
2018-03-29T23:45:55.311Z,5.50
2018-03-29T23:48:22.608Z,5.43
2018-03-29T23:50:49.866Z,5.00
2018-03-29T23:53:17.109Z,6.73
2018-03-29T23:55:44.377Z,6.00
2018-03-29T23:58:16.664Z,7.00
